Flight Track Log - Related Links

Times and Time Zones

All times are in EDT time to prevent confusion due to time zone crossing. See the N201LH flight status page for this flight to view local times or setup timezone preferences in your user account.

Time Position Orientation Groundspeed Altitude Reporting Facility
EDT Latitude Longitude Course Direction KTS MPH feet Rate Location/Type
Wed 02:34:53 PM 44.7406 -85.5589 135° Southeast 90 104 1,900  Level Minneapolis Center
Wed 02:35:55 PM 44.7147 -85.5367 149° Southeast 100 115 2,600 677 Climbing Minneapolis Center
Wed 02:36:57 PM 44.6889 -85.5086 142° Southeast 108 124 3,300 677 Climbing Minneapolis Center
Wed 02:37:59 PM 44.6608 -85.4717 137° Southeast 112 129 4,000 677 Climbing Minneapolis Center
Wed 02:39:01 PM 44.6372 -85.4400 136° Southeast 115 132 4,700 576 Climbing Minneapolis Center
Wed 02:40:00 PM 44.5968 -85.3864 135° Southeast  Level Estimated
Wed 02:40:04 PM 44.6147 -85.4053 132° Southeast 118 136 5,200  Level Minneapolis Center
Wed 02:41:06 PM 44.5914 -85.3747 137° Southeast 117 135 5,900 629 Climbing Minneapolis Center
Wed 02:42:08 PM 44.5669 -85.3433 138° Southeast 118 136 6,500 485 Climbing Minneapolis Center
Wed 02:43:22 PM 44.5436 -85.3158 140° Southeast 113 130 7,000 221 Climbing Minneapolis Center
Wed 02:44:24 PM 44.5039 -85.2731 142° Southeast 127 146 7,000  Level Minneapolis Center
Wed 02:45:26 PM 44.4767 -85.2275 130° Southeast 145 167 7,000  Level Minneapolis Center
Wed 02:46:28 PM 44.4531 -85.1822 126° Southeast 146 168 7,000  Level Minneapolis Center
Wed 02:47:30 PM 44.4206 -85.1478 143° Southeast 146 168 7,000  Level Minneapolis Center
Wed 02:48:32 PM 44.3908 -85.1092 137° Southeast 146 168 7,000  Level Minneapolis Center
Wed 02:49:34 PM 44.3611 -85.0700 137° Southeast 147 169 7,000  Level Minneapolis Center
Wed 02:50:37 PM 44.3222 -85.0214 138° Southeast 154 177 7,000  Level Minneapolis Center
Wed 02:51:39 PM 44.2889 -84.9789 138° Southeast 160 184 7,000  Level Minneapolis Center
Wed 02:52:53 PM 44.2547 -84.9272 133° Southeast 153 176 7,000  Level Minneapolis Center
Wed 02:53:55 PM 44.2258 -84.8883 136° Southeast 148 170 7,000 48 Level Minneapolis Center
Wed 02:54:57 PM 44.1942 -84.8489 138° Southeast 150 173 7,100 48 Climbing Minneapolis Center
Wed 02:55:59 PM 44.1564 -84.7981 136° Southeast 156 180 7,100  Level Minneapolis Center
Wed 02:57:01 PM 44.1256 -84.7547 135° Southeast 157 181 7,100  Level Minneapolis Center
Wed 02:58:03 PM 44.0942 -84.7125 136° Southeast 158 182 7,100 -48 Level Minneapolis Center
Wed 02:59:05 PM 44.0628 -84.6700 136° Southeast 158 182 7,000 -48 Descending Minneapolis Center
Wed 03:00:07 PM 44.0250 -84.6281 141° Southeast 159 183 7,000  Level Minneapolis Center
Wed 03:01:09 PM 43.9947 -84.5878 136° Southeast 154 177 7,000 48 Level Minneapolis Center
Wed 03:02:11 PM 43.9661 -84.5458 133° Southeast 146 168 7,100 48 Climbing Minneapolis Center
Wed 03:03:13 PM 43.9347 -84.5061 138° Southeast 150 173 7,100  Level Minneapolis Center
Wed 03:04:15 PM 43.9036 -84.4667 138° Southeast 152 175 7,100 -145 Level Minneapolis Center
Wed 03:05:17 PM 43.8706 -84.4253 138° Southeast 157 181 6,800 -293 Descending Minneapolis Center
Wed 03:06:18 PM 43.8372 -84.3842 138° Southeast 160 184 6,500 -341 Descending Minneapolis Center
Wed 03:07:20 PM 43.8019 -84.3378 136° Southeast 163 188 6,100 -242 Descending Minneapolis Center
Wed 03:08:22 PM 43.7658 -84.2881 135° Southeast 163 188 6,000 -97 Descending Minneapolis Center

Login

Don't have an account? Register now (free) for customized features, flight alerts, and more!